Time;durP1;ratioP1;P1;durP2;ratioP2;P2;SDS_P1;SDS_P2;PMS_P1;PMS_P2;Temp;Humidity;BMP_temperature;BMP_pressure;BME280_temperature;BME280_humidity;BME280_pressure;Samples;Min_cycle;Max_cycle;Signal;HPM_P1;HPM_P2
2022/03/31 00:00:15;;;;;;;3.83;3.38;;;2.20;99.90;;;;;;7273926;19;2004537;-67
2022/03/31 00:02:40;;;;;;;4.20;3.47;;;2.10;99.90;;;;;;7377061;19;20328;-66
2022/03/31 00:05:06;;;;;;;4.13;3.47;;;2.10;99.90;;;;;;7379854;19;20320;-66
2022/03/31 00:07:32;;;;;;;4.40;3.37;;;2.00;99.90;;;;;;7378846;19;20325;-66
2022/03/31 00:09:58;;;;;;;4.07;3.60;;;1.90;99.90;;;;;;7377589;19;21192;-66
2022/03/31 00:12:23;;;;;;;5.28;3.42;;;1.90;99.90;;;;;;7378886;19;20988;-67
2022/03/31 00:14:49;;;;;;;4.87;3.73;;;1.90;99.90;;;;;;7379703;19;20313;-66
2022/03/31 00:17:14;;;;;;;4.10;3.17;;;1.90;99.90;;;;;;7378837;19;20316;-66
2022/03/31 00:19:40;;;;;;;4.70;3.90;;;1.90;99.90;;;;;;7377159;19;20730;-67
2022/03/31 00:22:06;;;;;;;4.67;3.77;;;1.90;99.90;;;;;;7377242;19;20325;-66
2022/03/31 00:24:31;;;;;;;5.55;3.92;;;1.90;99.90;;;;;;7377476;19;20899;-66
2022/03/31 00:26:57;;;;;;;5.63;4.23;;;1.80;99.90;;;;;;7377941;19;20360;-66
2022/03/31 00:29:22;;;;;;;5.50;4.00;;;1.80;99.90;;;;;;7376929;19;21311;-66
2022/03/31 00:31:48;;;;;;;5.30;4.30;;;1.70;99.90;;;;;;7376607;19;20340;-67
2022/03/31 00:34:14;;;;;;;4.37;3.97;;;1.70;99.90;;;;;;7378363;19;20319;-66
2022/03/31 00:36:40;;;;;;;4.20;3.25;;;1.60;99.90;;;;;;7376762;19;20343;-67
2022/03/31 00:41:50;;;;;;;5.63;4.38;;;1.60;99.90;;;;;;7378172;19;20998;-66
2022/03/31 00:44:15;;;;;;;5.82;4.10;;;1.70;99.90;;;;;;7379038;19;20329;-66
2022/03/31 00:46:52;;;;;;;6.90;3.90;;;1.70;99.90;;;;;;7379119;19;20320;-67
2022/03/31 00:49:19;;;;;;;6.35;4.90;;;1.70;99.90;;;;;;7376660;19;20321;-66
2022/03/31 00:51:45;;;;;;;5.72;4.72;;;1.70;99.90;;;;;;7374299;19;20359;-66
2022/03/31 00:54:12;;;;;;;5.63;4.88;;;1.60;99.90;;;;;;7378882;19;20321;-66
2022/03/31 00:56:37;;;;;;;8.27;4.93;;;1.60;99.90;;;;;;7376907;19;20353;-67
2022/03/31 00:59:04;;;;;;;5.20;4.63;;;1.60;99.90;;;;;;7374914;19;20347;-67
2022/03/31 01:01:31;;;;;;;6.75;4.53;;;1.50;99.90;;;;;;7374099;19;20381;-67
2022/03/31 01:03:57;;;;;;;5.45;4.40;;;1.50;99.90;;;;;;7377524;19;20349;-67
2022/03/31 01:06:23;;;;;;;6.88;4.78;;;1.50;99.90;;;;;;7376113;19;20334;-68
2022/03/31 01:08:48;;;;;;;6.07;4.67;;;1.50;99.90;;;;;;7378115;19;20308;-66
2022/03/31 01:11:14;;;;;;;7.05;4.50;;;1.50;99.90;;;;;;7373902;19;20315;-67
2022/03/31 01:13:40;;;;;;;4.88;4.28;;;1.50;99.90;;;;;;7380779;19;20297;-66
2022/03/31 01:16:05;;;;;;;4.90;4.40;;;1.50;99.90;;;;;;7373466;19;21347;-67
2022/03/31 01:18:31;;;;;;;5.17;4.37;;;1.50;99.90;;;;;;7376637;19;20884;-66
2022/03/31 01:20:57;;;;;;;5.35;4.35;;;1.50;99.90;;;;;;7380740;19;20308;-66
2022/03/31 01:23:22;;;;;;;5.47;4.40;;;1.40;99.90;;;;;;7376705;19;20320;-66
2022/03/31 01:25:48;;;;;;;6.65;4.63;;;1.40;99.90;;;;;;7376768;19;20316;-66
2022/03/31 01:28:14;;;;;;;6.13;4.43;;;1.50;99.90;;;;;;7375730;19;20355;-66
2022/03/31 01:30:39;;;;;;;5.17;4.30;;;1.40;99.90;;;;;;7376885;19;20341;-66
2022/03/31 01:33:05;;;;;;;7.20;4.40;;;1.40;99.90;;;;;;7377384;19;20324;-66
2022/03/31 01:35:31;;;;;;;5.20;4.40;;;1.40;99.90;;;;;;7377400;19;20903;-67
2022/03/31 01:37:56;;;;;;;6.93;4.47;;;1.40;99.90;;;;;;7373552;19;20349;-66
2022/03/31 01:40:22;;;;;;;5.72;4.35;;;1.40;99.90;;;;;;7375054;19;20296;-67
2022/03/31 01:42:47;;;;;;;8.27;4.40;;;1.40;99.90;;;;;;7376951;19;20400;-65
2022/03/31 01:45:14;;;;;;;5.60;4.60;;;1.40;99.90;;;;;;7376119;19;20411;-67
2022/03/31 01:47:40;;;;;;;4.97;4.40;;;1.40;99.90;;;;;;7375990;19;20308;-66
2022/03/31 01:50:09;;;;;;;5.23;4.70;;;1.50;99.90;;;;;;7370264;19;20355;-66
2022/03/31 01:52:35;;;;;;;6.78;5.38;;;1.40;99.90;;;;;;7372292;19;20897;-66
2022/03/31 01:55:00;;;;;;;5.50;4.90;;;1.40;99.90;;;;;;7377861;19;20332;-67
2022/03/31 01:57:26;;;;;;;6.07;4.63;;;1.50;99.90;;;;;;7376182;19;20329;-66
2022/03/31 01:59:52;;;;;;;5.70;4.10;;;1.50;99.90;;;;;;7374636;19;20325;-66
2022/03/31 02:02:17;;;;;;;6.00;4.47;;;1.40;99.90;;;;;;7356739;19;20974;-66
2022/03/31 02:04:43;;;;;;;6.28;4.68;;;1.50;99.90;;;;;;7378523;19;20773;-67
2022/03/31 02:07:09;;;;;;;5.67;4.27;;;1.40;99.90;;;;;;7375002;19;20325;-66
2022/03/31 02:09:35;;;;;;;6.95;4.45;;;1.50;99.90;;;;;;7374982;19;20694;-66
2022/03/31 02:12:01;;;;;;;5.35;3.80;;;1.40;99.90;;;;;;7374993;19;20312;-66
2022/03/31 02:14:27;;;;;;;4.43;4.00;;;1.50;99.90;;;;;;7382447;19;20332;-66
2022/03/31 02:16:52;;;;;;;4.75;4.07;;;1.40;99.90;;;;;;7381431;19;20379;-67
2022/03/31 02:19:18;;;;;;;5.60;4.77;;;1.40;99.90;;;;;;7381310;19;20310;-66
2022/03/31 02:21:49;;;;;;;5.78;3.97;;;1.40;99.90;;;;;;7381891;19;20414;-66
2022/03/31 02:24:15;;;;;;;4.80;3.85;;;1.50;99.90;;;;;;7379559;19;20316;-67
2022/03/31 02:26:41;;;;;;;5.68;4.18;;;1.50;99.90;;;;;;7381920;19;20677;-67
2022/03/31 02:29:07;;;;;;;4.95;4.25;;;1.50;99.90;;;;;;7381339;19;20408;-66
2022/03/31 02:31:32;;;;;;;5.45;4.18;;;1.50;99.90;;;;;;7380654;19;20432;-67
2022/03/31 02:33:58;;;;;;;6.00;3.90;;;1.50;99.90;;;;;;7386253;19;20340;-66
2022/03/31 02:36:26;;;;;;;4.35;3.95;;;1.50;99.90;;;;;;7380420;19;20317;-67
2022/03/31 02:38:52;;;;;;;6.20;4.20;;;1.50;99.90;;;;;;7379772;19;20848;-67
2022/03/31 02:41:17;;;;;;;5.80;4.25;;;1.50;99.90;;;;;;7380289;19;20296;-66
2022/03/31 02:43:43;;;;;;;6.27;4.20;;;1.50;99.90;;;;;;7379905;19;20673;-66
2022/03/31 02:46:09;;;;;;;4.90;3.65;;;1.50;99.90;;;;;;7379985;19;20849;-68
2022/03/31 02:48:36;;;;;;;5.60;4.17;;;1.60;99.90;;;;;;7382990;19;20753;-67
2022/03/31 02:51:01;;;;;;;5.22;3.97;;;1.60;99.90;;;;;;7379982;19;20694;-67
2022/03/31 02:56:11;;;;;;;5.75;4.20;;;1.60;99.90;;;;;;7270654;19;2004519;-67
2022/03/31 02:58:36;;;;;;;6.83;4.93;;;1.60;99.90;;;;;;7379084;19;20427;-67
2022/03/31 03:01:02;;;;;;;5.20;4.50;;;1.50;99.90;;;;;;7375578;19;20348;-67
2022/03/31 03:03:29;;;;;;;6.80;4.55;;;1.50;99.90;;;;;;7378541;19;20292;-67
2022/03/31 03:05:55;;;;;;;6.07;4.32;;;1.40;99.90;;;;;;7380018;19;20421;-67
2022/03/31 03:08:21;;;;;;;5.67;4.20;;;1.40;99.90;;;;;;7378360;19;20364;-67
2022/03/31 03:10:46;;;;;;;9.30;4.47;;;1.40;99.90;;;;;;7377509;19;20427;-68
2022/03/31 03:13:13;;;;;;;5.13;4.18;;;1.30;99.90;;;;;;7379976;19;20333;-67
2022/03/31 03:15:38;;;;;;;4.23;3.73;;;1.30;99.90;;;;;;7378257;19;20356;-66
2022/03/31 03:18:04;;;;;;;4.33;3.93;;;1.30;99.90;;;;;;7383027;19;20702;-67
2022/03/31 03:20:30;;;;;;;4.75;4.00;;;1.30;99.90;;;;;;7367446;19;20890;-66
2022/03/31 03:22:56;;;;;;;4.70;3.95;;;1.30;99.90;;;;;;7376830;19;20328;-68
2022/03/31 03:25:23;;;;;;;4.17;3.70;;;1.30;99.90;;;;;;7378371;19;20305;-66
2022/03/31 03:27:48;;;;;;;5.22;4.07;;;1.30;99.90;;;;;;7379090;19;20441;-67
2022/03/31 03:30:15;;;;;;;4.32;3.92;;;1.30;99.90;;;;;;7378837;19;21055;-67
2022/03/31 03:32:40;;;;;;;7.97;3.90;;;1.20;99.90;;;;;;7379921;19;20658;-67
2022/03/31 03:35:07;;;;;;;4.60;3.92;;;1.20;99.90;;;;;;7378784;19;20325;-67
2022/03/31 03:37:33;;;;;;;4.15;3.35;;;1.10;99.90;;;;;;7380263;19;20438;-67
2022/03/31 03:40:02;;;;;;;6.18;3.80;;;1.10;99.90;;;;;;7379354;19;20356;-67
2022/03/31 03:42:28;;;;;;;4.88;3.35;;;1.10;99.90;;;;;;7376595;19;20316;-67
2022/03/31 03:44:54;;;;;;;3.58;3.28;;;1.00;99.90;;;;;;7380960;19;20311;-66
2022/03/31 03:47:21;;;;;;;3.60;3.30;;;1.00;99.90;;;;;;7377986;19;20332;-66
2022/03/31 03:49:47;;;;;;;3.60;3.30;;;1.00;99.90;;;;;;7381787;19;20642;-66
2022/03/31 03:52:12;;;;;;;3.55;3.25;;;1.00;99.90;;;;;;7375036;19;20351;-67
2022/03/31 03:54:38;;;;;;;3.72;3.22;;;0.90;99.90;;;;;;7379901;19;20361;-67
2022/03/31 03:57:04;;;;;;;4.37;3.50;;;0.90;99.90;;;;;;7379275;19;20323;-66
2022/03/31 03:59:30;;;;;;;3.72;3.13;;;0.90;99.90;;;;;;7378788;19;21089;-66
2022/03/31 04:01:56;;;;;;;7.45;3.53;;;0.90;99.90;;;;;;7372677;19;20328;-67
2022/03/31 04:04:21;;;;;;;3.88;3.22;;;0.80;99.90;;;;;;7379760;19;20331;-67
2022/03/31 04:06:47;;;;;;;3.80;2.80;;;0.80;99.90;;;;;;7379573;19;20319;-66
2022/03/31 04:09:13;;;;;;;5.67;3.13;;;0.80;99.90;;;;;;7375894;19;20309;-66
2022/03/31 04:11:38;;;;;;;3.88;2.65;;;0.80;99.90;;;;;;7380849;19;20449;-66
2022/03/31 04:14:04;;;;;;;4.97;2.70;;;0.80;99.90;;;;;;7379558;19;20358;-66
2022/03/31 04:16:29;;;;;;;3.03;2.60;;;0.70;99.90;;;;;;7375392;19;20313;-67
2022/03/31 04:18:55;;;;;;;5.37;2.97;;;0.70;99.90;;;;;;7377670;19;20377;-66
2022/03/31 04:21:21;;;;;;;3.70;2.85;;;0.70;99.90;;;;;;7376065;19;20987;-66
2022/03/31 04:23:46;;;;;;;3.43;3.13;;;0.70;99.90;;;;;;7378060;19;20349;-65
2022/03/31 04:26:12;;;;;;;4.03;2.83;;;0.60;99.90;;;;;;7378609;19;21267;-66
2022/03/31 04:28:37;;;;;;;3.75;2.92;;;0.60;99.90;;;;;;7379435;19;20332;-66
2022/03/31 04:31:03;;;;;;;4.33;2.90;;;0.60;99.90;;;;;;7376446;19;20876;-65
2022/03/31 04:33:29;;;;;;;4.43;3.05;;;0.50;99.90;;;;;;7379685;19;20328;-66
2022/03/31 04:35:55;;;;;;;4.57;3.25;;;0.50;99.90;;;;;;7375255;19;20342;-66
2022/03/31 04:38:21;;;;;;;4.32;2.88;;;0.50;99.90;;;;;;7378643;19;20353;-66
2022/03/31 04:40:46;;;;;;;4.40;2.92;;;0.50;99.90;;;;;;7374660;19;20727;-66
2022/03/31 04:43:13;;;;;;;4.80;3.10;;;0.50;99.90;;;;;;7377138;19;20340;-67
2022/03/31 04:45:39;;;;;;;3.63;2.80;;;0.50;99.90;;;;;;7381627;19;20315;-66
2022/03/31 04:48:05;;;;;;;3.37;3.07;;;0.40;99.90;;;;;;7378921;19;20340;-66
2022/03/31 04:50:30;;;;;;;3.33;2.87;;;0.50;99.90;;;;;;7372310;19;20368;-68
2022/03/31 04:52:56;;;;;;;6.20;3.20;;;0.50;99.90;;;;;;7378084;19;21256;-66
2022/03/31 04:55:22;;;;;;;3.53;3.10;;;0.50;99.90;;;;;;7376945;19;20370;-66
2022/03/31 04:57:47;;;;;;;4.07;3.40;;;0.50;99.90;;;;;;7375594;19;20717;-66
2022/03/31 05:00:13;;;;;;;4.85;3.30;;;0.50;99.90;;;;;;7376137;19;20756;-66
2022/03/31 05:02:39;;;;;;;3.80;3.10;;;0.50;99.90;;;;;;7375579;19;20827;-67
2022/03/31 05:05:05;;;;;;;6.45;3.17;;;0.50;99.90;;;;;;7379825;19;20317;-66
2022/03/31 05:07:31;;;;;;;4.37;3.30;;;0.50;99.90;;;;;;7376577;19;22203;-66
2022/03/31 05:09:57;;;;;;;4.50;3.60;;;0.50;99.90;;;;;;7377329;19;20867;-66
2022/03/31 05:12:23;;;;;;;2.97;2.67;;;0.50;99.90;;;;;;7375651;19;20338;-66
2022/03/31 05:14:48;;;;;;;4.87;2.97;;;0.40;99.90;;;;;;7380303;19;20341;-66
2022/03/31 05:17:14;;;;;;;5.03;3.38;;;0.40;99.90;;;;;;7377175;19;20309;-66
2022/03/31 05:19:40;;;;;;;4.82;2.83;;;0.50;99.90;;;;;;7375137;19;20396;-66
2022/03/31 05:22:05;;;;;;;3.40;3.10;;;0.50;99.90;;;;;;7377006;19;20428;-67
2022/03/31 05:24:31;;;;;;;5.45;3.65;;;0.50;99.90;;;;;;7377213;19;20405;-66
2022/03/31 05:26:57;;;;;;;5.60;3.58;;;0.50;99.90;;;;;;7376010;19;20986;-66
2022/03/31 05:29:22;;;;;;;3.50;3.13;;;0.50;99.90;;;;;;7377803;19;20325;-67
2022/03/31 05:31:49;;;;;;;4.65;3.55;;;0.50;99.90;;;;;;7373337;19;20308;-66
2022/03/31 05:34:14;;;;;;;5.10;2.90;;;0.50;99.90;;;;;;7375585;19;20720;-68
2022/03/31 05:36:40;;;;;;;4.65;3.38;;;0.60;99.90;;;;;;7376598;19;20340;-66
2022/03/31 05:39:06;;;;;;;3.73;3.17;;;0.50;99.90;;;;;;7374875;19;20351;-66
2022/03/31 05:41:31;;;;;;;4.93;3.20;;;0.60;99.90;;;;;;7372056;19;21338;-67
2022/03/31 05:43:57;;;;;;;4.38;3.75;;;0.60;99.90;;;;;;7376914;19;20380;-66
2022/03/31 05:46:23;;;;;;;3.45;3.13;;;0.60;99.90;;;;;;7374309;19;20901;-66
2022/03/31 05:48:49;;;;;;;4.30;3.33;;;0.60;99.90;;;;;;7374469;19;20320;-67
2022/03/31 05:51:15;;;;;;;4.63;3.27;;;0.60;99.90;;;;;;7371104;19;20327;-65
2022/03/31 05:53:41;;;;;;;4.40;3.20;;;0.60;99.90;;;;;;7374776;19;20344;-66
2022/03/31 05:56:07;;;;;;;4.13;3.33;;;0.60;99.90;;;;;;7376363;19;20312;-66
2022/03/31 05:58:33;;;;;;;3.53;3.22;;;0.60;99.90;;;;;;7376092;19;20349;-66
2022/03/31 06:00:59;;;;;;;4.88;2.88;;;0.60;99.90;;;;;;7374328;19;20853;-66
2022/03/31 06:03:25;;;;;;;4.60;3.17;;;0.60;99.90;;;;;;7376340;19;20316;-66
2022/03/31 06:05:51;;;;;;;4.33;3.73;;;0.60;99.90;;;;;;7374754;19;20344;-66
2022/03/31 06:08:17;;;;;;;4.28;3.28;;;0.60;99.90;;;;;;7375242;19;20337;-66
2022/03/31 06:10:43;;;;;;;4.85;3.33;;;0.60;99.90;;;;;;7374235;19;20400;-66
2022/03/31 06:13:09;;;;;;;4.30;3.20;;;0.60;99.90;;;;;;7376218;19;20929;-66
2022/03/31 06:15:35;;;;;;;5.40;3.38;;;0.60;99.90;;;;;;7373068;19;20340;-66
2022/03/31 06:18:01;;;;;;;4.15;3.10;;;0.60;99.90;;;;;;7375399;19;20392;-66
2022/03/31 06:20:28;;;;;;;4.40;3.15;;;0.60;99.90;;;;;;7370629;19;20336;-66
2022/03/31 06:22:54;;;;;;;6.60;3.45;;;0.60;99.90;;;;;;7376473;19;20316;-66
2022/03/31 06:25:20;;;;;;;4.27;3.40;;;0.60;99.90;;;;;;7375161;19;20313;-66
2022/03/31 06:27:46;;;;;;;4.57;3.35;;;0.60;99.90;;;;;;7377796;19;20352;-66
2022/03/31 06:30:12;;;;;;;3.20;2.90;;;0.60;99.90;;;;;;7375659;19;20365;-66
2022/03/31 06:32:38;;;;;;;4.22;3.63;;;0.70;99.90;;;;;;7375614;19;20356;-65
2022/03/31 06:35:04;;;;;;;3.95;3.38;;;0.60;99.90;;;;;;7373111;19;20352;-65
2022/03/31 06:37:30;;;;;;;3.55;3.20;;;0.60;99.90;;;;;;7354582;19;20339;-66
2022/03/31 06:39:55;;;;;;;4.25;2.80;;;0.60;99.90;;;;;;7376758;19;20356;-66
2022/03/31 06:42:21;;;;;;;5.97;3.17;;;0.70;99.90;;;;;;7370529;19;20373;-66
2022/03/31 06:44:48;;;;;;;3.88;3.17;;;0.70;99.90;;;;;;7374645;19;21276;-65
2022/03/31 06:47:13;;;;;;;3.78;3.10;;;0.70;99.90;;;;;;7373312;19;20329;-66
2022/03/31 06:49:39;;;;;;;3.43;3.13;;;0.70;99.90;;;;;;7375716;19;20400;-66
2022/03/31 06:52:05;;;;;;;4.07;3.38;;;0.70;99.90;;;;;;7374280;19;21126;-66
2022/03/31 06:54:31;;;;;;;3.67;3.00;;;0.70;99.90;;;;;;7374678;19;20352;-66
2022/03/31 06:56:57;;;;;;;8.27;4.03;;;0.70;99.90;;;;;;7375021;19;20876;-66
2022/03/31 06:59:23;;;;;;;4.13;3.40;;;0.70;99.90;;;;;;7378628;19;20348;-66
2022/03/31 07:01:48;;;;;;;6.43;3.63;;;0.80;99.90;;;;;;7380789;19;21110;-66
2022/03/31 07:04:15;;;;;;;5.33;3.53;;;0.70;99.90;;;;;;7380633;19;20297;-67
2022/03/31 07:06:40;;;;;;;3.87;3.20;;;0.70;99.90;;;;;;7381425;19;20345;-67
2022/03/31 07:09:06;;;;;;;5.57;3.33;;;0.70;99.90;;;;;;7379108;19;20419;-66
2022/03/31 07:11:32;;;;;;;4.20;3.30;;;0.70;99.90;;;;;;7383275;19;21106;-66
2022/03/31 07:14:01;;;;;;;5.80;3.92;;;0.70;99.90;;;;;;7379289;19;20336;-66
2022/03/31 07:16:28;;;;;;;5.30;3.58;;;0.80;99.90;;;;;;7380770;19;20309;-66
2022/03/31 07:18:54;;;;;;;3.72;3.33;;;0.80;99.90;;;;;;7381614;19;20332;-67
2022/03/31 07:21:20;;;;;;;6.10;3.60;;;0.80;99.90;;;;;;7377053;19;20981;-67
2022/03/31 07:23:48;;;;;;;3.60;3.30;;;0.80;99.90;;;;;;7381484;19;20412;-66
2022/03/31 07:26:15;;;;;;;6.65;3.88;;;0.80;99.90;;;;;;7382028;19;20321;-66
2022/03/31 07:28:41;;;;;;;5.72;3.50;;;0.70;99.90;;;;;;7377164;19;20420;-66
2022/03/31 07:31:06;;;;;;;4.47;3.60;;;0.70;99.90;;;;;;7370493;19;20336;-65
2022/03/31 07:33:32;;;;;;;4.72;3.38;;;0.60;99.90;;;;;;7380297;19;20638;-67
2022/03/31 07:35:58;;;;;;;4.10;3.30;;;0.60;99.90;;;;;;7377264;19;20312;-66
2022/03/31 07:38:24;;;;;;;4.70;3.60;;;0.70;99.90;;;;;;7379772;19;20947;-66
2022/03/31 07:40:50;;;;;;;4.70;3.60;;;0.70;99.90;;;;;;7369179;19;20440;-66
2022/03/31 07:43:15;;;;;;;8.23;3.85;;;0.70;99.90;;;;;;7380460;19;20332;-67
2022/03/31 07:45:41;;;;;;;4.18;3.25;;;0.70;99.90;;;;;;7379123;19;20365;-66
2022/03/31 07:48:15;;;;;;;6.13;3.47;;;0.70;99.90;;;;;;7366200;19;20333;-66
2022/03/31 07:50:41;;;;;;;4.00;3.38;;;0.80;99.90;;;;;;7369889;19;20732;-66
2022/03/31 07:53:07;;;;;;;7.20;3.73;;;0.80;99.90;;;;;;7379639;19;20419;-66
2022/03/31 07:55:33;;;;;;;4.37;3.73;;;0.80;99.90;;;;;;7378260;19;20423;-65
2022/03/31 07:57:59;;;;;;;5.38;3.33;;;0.80;99.90;;;;;;7378539;19;20371;-65
2022/03/31 08:00:25;;;;;;;4.93;3.50;;;0.90;99.90;;;;;;7379575;19;20460;-66
2022/03/31 08:02:51;;;;;;;5.93;3.83;;;0.90;99.90;;;;;;7379279;19;20412;-65
2022/03/31 08:05:22;;;;;;;5.07;3.88;;;0.90;99.90;;;;;;7381406;19;20873;-66
2022/03/31 08:07:48;;;;;;;3.88;3.42;;;1.00;99.90;;;;;;7381207;19;20301;-65
2022/03/31 08:10:13;;;;;;;4.03;3.63;;;1.00;99.90;;;;;;7376697;19;20840;-66
2022/03/31 08:12:44;;;;;;;5.55;3.90;;;1.00;99.90;;;;;;7376638;19;20341;-66
2022/03/31 08:15:10;;;;;;;5.18;3.70;;;1.10;99.90;;;;;;7379761;19;20300;-65
2022/03/31 08:17:36;;;;;;;4.00;3.60;;;1.20;99.90;;;;;;7358334;19;20317;-66
2022/03/31 08:20:02;;;;;;;4.13;3.63;;;1.30;99.90;;;;;;7379060;19;20329;-66
2022/03/31 08:22:27;;;;;;;4.72;3.60;;;1.50;99.90;;;;;;7376301;19;20324;-65
2022/03/31 08:24:54;;;;;;;5.57;3.90;;;1.50;99.90;;;;;;7377955;19;20357;-67
2022/03/31 08:27:20;;;;;;;4.55;3.30;;;1.60;99.90;;;;;;7378798;19;20317;-66
2022/03/31 08:29:46;;;;;;;5.53;3.97;;;1.50;99.90;;;;;;7375119;19;20341;-66
2022/03/31 08:32:13;;;;;;;6.22;4.18;;;1.50;99.90;;;;;;7376010;19;20885;-66
2022/03/31 08:34:38;;;;;;;5.15;3.90;;;1.50;99.90;;;;;;7380043;19;20324;-66
2022/03/31 08:37:04;;;;;;;6.80;4.23;;;1.50;99.90;;;;;;7359049;19;20950;-66
2022/03/31 08:39:29;;;;;;;4.50;3.75;;;1.60;99.90;;;;;;7376363;19;20975;-65
2022/03/31 08:41:56;;;;;;;5.47;4.10;;;1.60;99.90;;;;;;7378803;19;20705;-65
2022/03/31 08:44:22;;;;;;;4.70;4.07;;;1.60;99.90;;;;;;7378627;19;20753;-66
2022/03/31 08:46:48;;;;;;;4.85;4.35;;;1.70;99.90;;;;;;7377787;19;21247;-66
2022/03/31 08:49:14;;;;;;;5.38;4.18;;;1.70;99.90;;;;;;7376881;19;20305;-66
2022/03/31 08:51:42;;;;;;;5.30;3.97;;;1.70;99.90;;;;;;7376726;19;20324;-66
2022/03/31 08:54:08;;;;;;;5.97;4.20;;;1.80;99.90;;;;;;7378182;19;20301;-66
2022/03/31 08:56:42;;;;;;;6.18;4.28;;;1.90;99.90;;;;;;7377068;19;20328;-66
2022/03/31 08:59:08;;;;;;;4.72;4.22;;;2.00;99.90;;;;;;7374899;19;20320;-66
2022/03/31 09:01:34;;;;;;;5.13;4.47;;;2.10;99.90;;;;;;7373701;19;20901;-66
2022/03/31 09:04:00;;;;;;;6.70;4.50;;;2.20;99.90;;;;;;7380561;19;20293;-66
2022/03/31 09:06:28;;;;;;;6.33;4.40;;;2.30;99.90;;;;;;7378211;19;20843;-65
2022/03/31 09:08:56;;;;;;;6.43;4.78;;;2.30;99.90;;;;;;7377517;19;20332;-66
2022/03/31 09:11:28;;;;;;;6.77;4.97;;;2.50;99.90;;;;;;7374141;19;20305;-66
2022/03/31 09:13:56;;;;;;;5.20;4.53;;;2.50;99.90;;;;;;7379719;19;20832;-65
2022/03/31 09:16:31;;;;;;;7.07;4.68;;;2.50;99.90;;;;;;7375845;19;20296;-66
2022/03/31 09:19:04;;;;;;;7.57;4.93;;;2.50;99.90;;;;;;7374764;19;20340;-66
2022/03/31 09:21:31;;;;;;;6.93;4.70;;;2.60;99.90;;;;;;7373657;19;21187;-66
2022/03/31 09:23:57;;;;;;;5.20;4.47;;;2.50;99.90;;;;;;7377555;19;20324;-66
2022/03/31 09:26:22;;;;;;;7.03;5.47;;;2.60;99.90;;;;;;7375454;19;20316;-66
2022/03/31 09:28:50;;;;;;;7.47;5.30;;;2.60;99.90;;;;;;7375355;19;20329;-66
2022/03/31 09:31:22;;;;;;;6.28;4.55;;;2.70;99.90;;;;;;7375561;19;20321;-66
2022/03/31 09:33:56;;;;;;;6.85;5.00;;;2.70;99.90;;;;;;7379822;19;20312;-66
2022/03/31 09:36:22;;;;;;;7.90;5.10;;;2.80;99.90;;;;;;7374487;19;20312;-66
2022/03/31 09:39:02;;;;;;;7.28;5.20;;;2.90;99.90;;;;;;7376212;19;20332;-66
2022/03/31 09:41:30;;;;;;;8.57;5.50;;;2.80;99.90;;;;;;7375120;19;20309;-67
2022/03/31 09:43:56;;;;;;;5.65;4.97;;;2.90;99.90;;;;;;7376033;19;20321;-67
2022/03/31 09:46:40;;;;;;;7.00;5.45;;;2.80;99.90;;;;;;7356872;19;20431;-67
2022/03/31 09:49:18;;;;;;;6.45;4.90;;;2.80;99.90;;;;;;7376458;19;20342;-69
2022/03/31 09:51:49;;;;;;;8.95;5.05;;;2.90;99.90;;;;;;7375487;19;20316;-67
2022/03/31 09:54:15;;;;;;;6.00;5.18;;;2.90;99.90;;;;;;7376615;19;20326;-66
2022/03/31 09:56:44;;;;;;;6.55;5.15;;;2.90;99.90;;;;;;7373647;19;20340;-65
2022/03/31 09:59:11;;;;;;;5.90;4.93;;;2.80;99.90;;;;;;7350417;19;20319;-70
2022/03/31 10:01:38;;;;;;;7.38;4.82;;;2.90;99.90;;;;;;7372881;19;20305;-66
2022/03/31 10:04:05;;;;;;;5.25;4.65;;;3.00;99.90;;;;;;7375038;19;20341;-69
2022/03/31 10:06:33;;;;;;;6.63;5.22;;;3.00;99.90;;;;;;7375223;19;20309;-68
2022/03/31 10:08:58;;;;;;;5.60;4.57;;;2.90;99.90;;;;;;7375451;19;20427;-66
2022/03/31 10:11:26;;;;;;;5.63;4.40;;;3.10;99.90;;;;;;7373795;19;20408;-67
2022/03/31 10:14:04;;;;;;;6.53;4.70;;;3.10;99.90;;;;;;7375733;19;20301;-67
2022/03/31 10:16:37;;;;;;;5.00;4.50;;;3.20;99.90;;;;;;7270882;19;2004380;-67
2022/03/31 10:19:03;;;;;;;5.95;4.57;;;3.20;99.90;;;;;;7374881;19;20313;-67
2022/03/31 10:21:30;;;;;;;6.05;4.55;;;3.40;99.90;;;;;;7374593;19;20333;-66
2022/03/31 10:24:56;;;;;;;5.82;4.88;;;3.50;99.90;;;;;;7374810;19;20413;-67
2022/03/31 10:27:01;;;;;;;7.18;4.40;;;3.50;99.90;;;;;;7373927;19;20308;-67
2022/03/31 10:29:42;;;;;;;7.55;5.00;;;3.50;99.90;;;;;;7377553;19;20328;-67
2022/03/31 10:32:21;;;;;;;7.05;4.93;;;3.40;99.90;;;;;;7374290;19;20326;-67
2022/03/31 10:34:48;;;;;;;5.97;4.47;;;3.40;99.90;;;;;;7382532;19;20316;-66
2022/03/31 10:37:17;;;;;;;6.18;4.70;;;3.40;99.90;;;;;;7381082;19;20324;-67
2022/03/31 10:39:53;;;;;;;5.87;4.83;;;3.50;99.90;;;;;;7382808;19;20352;-68
2022/03/31 10:42:18;;;;;;;7.57;4.88;;;3.30;99.90;;;;;;7381716;19;20780;-67
2022/03/31 10:44:44;;;;;;;7.32;5.05;;;3.30;99.90;;;;;;7381361;19;20316;-67
2022/03/31 10:47:10;;;;;;;10.10;5.17;;;3.40;99.90;;;;;;7381041;19;20883;-67
2022/03/31 10:49:36;;;;;;;5.43;4.90;;;3.40;99.90;;;;;;7381518;19;20326;-68
2022/03/31 10:52:14;;;;;;;8.60;5.18;;;3.50;99.90;;;;;;7379973;19;20356;-67
2022/03/31 10:54:43;;;;;;;5.38;4.82;;;3.40;99.90;;;;;;7358832;19;26041;-67
2022/03/31 10:57:11;;;;;;;7.20;4.80;;;3.40;99.90;;;;;;7381608;19;20416;-66
2022/03/31 10:59:38;;;;;;;8.23;5.20;;;3.50;99.90;;;;;;7382715;19;20361;-69
2022/03/31 11:02:14;;;;;;;9.15;5.10;;;3.40;99.90;;;;;;7378642;19;20323;-68
2022/03/31 11:05:07;;;;;;;7.47;4.68;;;3.40;99.90;;;;;;7380885;19;20311;-66
2022/03/31 11:07:32;;;;;;;7.82;5.10;;;3.60;99.90;;;;;;7279142;19;2004568;-66
2022/03/31 11:10:15;;;;;;;7.37;5.40;;;3.70;99.90;;;;;;7379301;19;20336;-68
2022/03/31 11:12:41;;;;;;;7.35;5.72;;;3.70;99.90;;;;;;7278392;19;2004563;-67
2022/03/31 11:15:08;;;;;;;9.55;5.75;;;3.70;99.90;;;;;;7358833;19;20344;-66
2022/03/31 11:17:34;;;;;;;6.20;5.43;;;3.70;99.90;;;;;;7379589;19;20444;-67
2022/03/31 11:20:03;;;;;;;5.90;5.00;;;3.70;99.90;;;;;;7377054;19;20800;-68
2022/03/31 11:22:29;;;;;;;9.13;5.68;;;3.80;99.90;;;;;;7373219;19;20369;-68
2022/03/31 11:25:08;;;;;;;7.20;5.68;;;4.00;99.90;;;;;;7376644;19;20333;-68
2022/03/31 11:27:36;;;;;;;8.18;5.63;;;4.00;99.90;;;;;;7378162;19;20337;-68
2022/03/31 11:30:07;;;;;;;7.35;5.35;;;4.00;99.90;;;;;;7372655;19;20353;-68
2022/03/31 11:32:33;;;;;;;6.80;5.38;;;4.10;99.90;;;;;;7372823;19;20408;-68
2022/03/31 11:34:59;;;;;;;6.90;5.97;;;4.30;99.90;;;;;;7375105;19;20362;-68
2022/03/31 11:37:25;;;;;;;7.07;5.55;;;4.20;99.90;;;;;;7376438;19;20341;-68
2022/03/31 11:39:51;;;;;;;7.90;6.00;;;4.20;99.90;;;;;;7372133;19;20329;-67
2022/03/31 11:42:16;;;;;;;7.20;5.40;;;4.30;99.90;;;;;;7374002;19;20344;-67
2022/03/31 11:44:42;;;;;;;6.75;5.85;;;4.40;99.90;;;;;;7375847;19;20336;-66
2022/03/31 11:47:12;;;;;;;6.97;5.40;;;4.40;99.90;;;;;;7373914;19;20360;-68
2022/03/31 11:49:39;;;;;;;8.95;5.85;;;4.50;99.90;;;;;;7372526;19;20337;-67
2022/03/31 11:52:06;;;;;;;7.30;5.68;;;4.50;99.90;;;;;;7372189;19;21243;-67
2022/03/31 11:54:32;;;;;;;8.60;6.13;;;4.50;99.90;;;;;;7380271;19;20332;-68
2022/03/31 11:57:02;;;;;;;9.15;6.40;;;4.50;99.90;;;;;;7374482;19;20353;-68
2022/03/31 11:59:28;;;;;;;6.72;5.90;;;4.50;99.90;;;;;;7375550;19;20351;-67
2022/03/31 12:01:54;;;;;;;9.02;5.50;;;4.60;99.90;;;;;;7370419;19;20353;-69
2022/03/31 12:04:21;;;;;;;7.27;5.77;;;4.70;99.90;;;;;;7377327;19;20370;-68
2022/03/31 12:06:47;;;;;;;8.82;5.95;;;4.80;99.90;;;;;;7378336;19;20344;-69
2022/03/31 12:09:13;;;;;;;6.05;5.45;;;4.80;99.90;;;;;;7369903;19;20325;-68
2022/03/31 12:11:46;;;;;;;8.32;5.53;;;4.90;99.90;;;;;;7294241;19;20332;-68
2022/03/31 12:14:17;;;;;;;8.57;5.35;;;4.90;99.90;;;;;;7353566;19;20323;-68
2022/03/31 12:16:43;;;;;;;7.22;5.25;;;5.00;99.90;;;;;;7375695;19;20325;-68
2022/03/31 12:19:09;;;;;;;6.32;5.43;;;5.20;99.90;;;;;;7372506;19;20443;-68
2022/03/31 12:21:44;;;;;;;6.82;5.28;;;5.10;99.90;;;;;;7371193;19;20332;-68
2022/03/31 12:24:10;;;;;;;6.50;5.03;;;5.10;99.90;;;;;;7373603;19;20955;-68
2022/03/31 12:26:35;;;;;;;5.97;4.70;;;5.10;99.90;;;;;;7373622;19;20336;-68
2022/03/31 12:29:02;;;;;;;6.82;5.70;;;5.20;99.90;;;;;;7368860;19;20352;-67
2022/03/31 12:31:31;;;;;;;8.68;5.70;;;5.40;99.90;;;;;;7370969;19;20329;-68
2022/03/31 12:33:58;;;;;;;7.07;5.22;;;5.20;99.90;;;;;;7374314;19;20342;-67
2022/03/31 12:36:33;;;;;;;5.75;5.10;;;5.10;99.90;;;;;;7376954;19;20328;-68
2022/03/31 12:39:01;;;;;;;6.90;5.18;;;4.90;99.90;;;;;;7377723;19;20363;-67
2022/03/31 12:41:33;;;;;;;7.38;4.90;;;5.00;99.90;;;;;;7377175;19;20887;-67
2022/03/31 12:44:06;;;;;;;7.15;5.30;;;4.90;99.90;;;;;;7379164;19;20650;-68
2022/03/31 12:46:37;;;;;;;6.87;5.17;;;4.80;99.90;;;;;;7378015;19;20801;-68
2022/03/31 12:49:11;;;;;;;8.63;4.70;;;5.00;99.90;;;;;;7376804;19;20340;-67
2022/03/31 12:51:59;;;;;;;8.13;5.53;;;5.00;99.90;;;;;;7376631;19;20358;-68
2022/03/31 12:54:46;;;;;;;4.95;4.45;;;5.10;99.90;;;;;;7378168;19;21031;-68
2022/03/31 12:57:12;;;;;;;9.02;5.35;;;5.10;99.90;;;;;;7260170;19;2004520;-68
2022/03/31 12:59:38;;;;;;;5.78;4.80;;;5.10;99.90;;;;;;7379519;19;20329;-67
2022/03/31 13:02:08;;;;;;;6.00;4.70;;;5.10;99.90;;;;;;7375768;19;20359;-67